createdAt,value
2022-12-31T00:00:28.133Z,94.01
2022-12-31T00:03:20.028Z,94.56
2022-12-31T00:05:52.240Z,95.09
2022-12-31T00:08:24.081Z,95.08
2022-12-31T00:10:56.626Z,95.29
2022-12-31T00:13:28.369Z,94.92
2022-12-31T00:16:12.175Z,95.06
2022-12-31T00:18:47.829Z,94.78
2022-12-31T00:21:20.481Z,94.75
2022-12-31T00:23:52.459Z,95.24
2022-12-31T00:26:25.998Z,95.44
2022-12-31T00:28:59.126Z,95.52
2022-12-31T00:31:33.051Z,95.64
2022-12-31T00:34:05.118Z,95.77
2022-12-31T00:36:38.676Z,95.83
2022-12-31T00:39:11.148Z,95.61
2022-12-31T00:41:45.378Z,95.16
2022-12-31T00:44:17.133Z,95.18
2022-12-31T00:46:49.066Z,95.02
2022-12-31T00:49:20.831Z,95.32
2022-12-31T00:51:52.949Z,94.69
2022-12-31T00:54:24.727Z,95.10
2022-12-31T00:56:56.705Z,95.45
2022-12-31T00:59:28.466Z,95.50
2022-12-31T01:02:00.993Z,95.37
2022-12-31T01:04:32.909Z,95.24
2022-12-31T01:07:04.967Z,95.34
2022-12-31T01:09:36.791Z,95.40
2022-12-31T01:12:09.607Z,95.54
2022-12-31T01:14:41.569Z,95.60
2022-12-31T01:17:14.447Z,95.80
2022-12-31T01:19:46.251Z,95.71
2022-12-31T01:22:18.574Z,95.90
2022-12-31T01:24:50.351Z,95.68
2022-12-31T01:27:22.246Z,95.81
2022-12-31T01:29:54.032Z,95.40
2022-12-31T01:32:26.263Z,95.20
2022-12-31T01:34:58.076Z,95.53
2022-12-31T01:37:30.717Z,95.44
2022-12-31T01:40:02.515Z,95.54
2022-12-31T01:42:34.769Z,95.38
2022-12-31T01:45:10.298Z,95.43
2022-12-31T01:47:45.518Z,95.48
2022-12-31T01:50:21.787Z,95.28
2022-12-31T01:52:57.794Z,95.15
2022-12-31T01:55:31.882Z,95.35
2022-12-31T01:58:08.271Z,95.32
2022-12-31T02:00:40.485Z,95.09
2022-12-31T02:03:12.665Z,95.08
2022-12-31T02:05:47.420Z,95.04
2022-12-31T02:08:19.460Z,95.19
2022-12-31T02:10:51.258Z,94.84
2022-12-31T02:13:23.546Z,94.89
2022-12-31T02:16:01.234Z,94.72
2022-12-31T02:18:38.188Z,94.77
2022-12-31T02:21:38.118Z,94.47
2022-12-31T02:24:24.838Z,94.13
2022-12-31T02:27:06.819Z,94.40
2022-12-31T02:30:07.208Z,94.45
2022-12-31T02:33:04.119Z,94.27
2022-12-31T02:35:42.981Z,94.22
2022-12-31T02:38:17.456Z,94.27
2022-12-31T02:40:49.672Z,94.35
2022-12-31T02:43:21.496Z,94.42
2022-12-31T02:45:58.004Z,94.32
2022-12-31T02:48:43.742Z,94.17
2022-12-31T02:51:23.065Z,94.23
2022-12-31T02:54:07.377Z,94.25
2022-12-31T02:56:43.597Z,94.07
2022-12-31T02:59:36.991Z,94.16
2022-12-31T03:02:15.867Z,94.10
2022-12-31T03:04:50.308Z,93.91
2022-12-31T03:07:24.839Z,93.96
2022-12-31T03:09:56.869Z,94.33
2022-12-31T03:12:49.119Z,94.28
2022-12-31T03:15:23.569Z,94.15
2022-12-31T03:17:58.383Z,94.38
2022-12-31T03:20:50.943Z,94.21
2022-12-31T03:23:25.362Z,94.01
2022-12-31T03:25:57.554Z,93.82
2022-12-31T03:28:30.955Z,93.85
2022-12-31T03:31:04.793Z,93.81
2022-12-31T03:33:38.723Z,93.72
2022-12-31T03:36:12.985Z,93.85
2022-12-31T03:38:48.568Z,93.63
2022-12-31T03:41:24.347Z,93.45
2022-12-31T03:43:56.434Z,93.29
2022-12-31T03:46:28.171Z,93.35
2022-12-31T03:49:00.052Z,93.18
2022-12-31T03:51:31.906Z,93.04
2022-12-31T03:54:03.824Z,92.92
2022-12-31T03:56:35.716Z,92.81
2022-12-31T03:59:10.585Z,92.52
2022-12-31T04:01:44.178Z,92.33
2022-12-31T04:04:17.439Z,92.01
2022-12-31T04:06:49.292Z,91.49
2022-12-31T04:09:21.500Z,91.21
2022-12-31T04:11:53.293Z,90.85
2022-12-31T04:14:25.137Z,90.57
2022-12-31T04:16:57.095Z,90.44
2022-12-31T04:19:29.044Z,89.98
2022-12-31T04:22:00.915Z,89.75
2022-12-31T04:24:33.138Z,89.44
2022-12-31T04:27:07.770Z,88.66
2022-12-31T04:29:40.365Z,89.06
2022-12-31T04:32:12.579Z,88.83
2022-12-31T04:34:44.618Z,88.79
2022-12-31T04:37:16.689Z,88.75
2022-12-31T04:39:48.702Z,88.41
2022-12-31T04:42:20.549Z,88.37
2022-12-31T04:44:52.497Z,87.88
2022-12-31T04:47:24.326Z,87.41
2022-12-31T04:49:56.265Z,86.82
2022-12-31T04:52:28.142Z,86.15
2022-12-31T04:55:00.239Z,86.18
2022-12-31T04:57:32.227Z,85.85
2022-12-31T05:00:04.717Z,85.49
2022-12-31T05:02:36.662Z,85.96
2022-12-31T05:05:10.028Z,85.84
2022-12-31T05:07:41.975Z,85.72
2022-12-31T05:10:14.113Z,85.57
2022-12-31T05:12:46.059Z,85.52
2022-12-31T05:15:18.802Z,85.49
2022-12-31T05:17:50.967Z,85.09
2022-12-31T05:20:22.989Z,85.20
2022-12-31T05:22:54.770Z,85.19
2022-12-31T05:25:26.965Z,85.39
2022-12-31T05:27:58.926Z,85.30
2022-12-31T05:30:30.836Z,85.09
2022-12-31T05:33:03.477Z,85.31
2022-12-31T05:35:35.575Z,85.10
2022-12-31T05:38:07.559Z,85.07
2022-12-31T05:40:39.461Z,84.84
2022-12-31T05:43:11.540Z,84.67
2022-12-31T05:45:43.571Z,84.88
2022-12-31T05:48:15.447Z,84.92
2022-12-31T05:50:47.637Z,84.83
2022-12-31T05:53:19.823Z,84.55
2022-12-31T05:55:52.067Z,84.66
2022-12-31T05:58:24.114Z,84.85
2022-12-31T06:00:56.039Z,84.78
2022-12-31T06:03:28.043Z,85.19
2022-12-31T06:05:59.955Z,85.00
2022-12-31T06:08:31.958Z,85.26
2022-12-31T06:11:03.725Z,85.38
2022-12-31T06:13:35.617Z,85.37
2022-12-31T06:16:11.985Z,85.51
2022-12-31T06:18:43.770Z,85.64
2022-12-31T06:21:15.990Z,85.43
2022-12-31T06:23:48.004Z,85.77
2022-12-31T06:26:19.889Z,85.47
2022-12-31T06:28:51.653Z,85.47
2022-12-31T06:31:23.601Z,85.71
2022-12-31T06:33:55.489Z,85.79
2022-12-31T06:36:27.361Z,85.44
2022-12-31T06:38:59.147Z,85.81
2022-12-31T06:41:30.926Z,85.89
2022-12-31T06:44:02.816Z,85.88
2022-12-31T06:46:34.659Z,85.89
2022-12-31T06:49:06.465Z,86.05
2022-12-31T06:51:38.329Z,86.20
2022-12-31T06:54:10.303Z,86.30
2022-12-31T06:56:43.526Z,86.07
2022-12-31T06:59:26.740Z,86.09
2022-12-31T07:02:09.382Z,86.09
2022-12-31T07:05:12.749Z,86.07
2022-12-31T07:07:53.445Z,86.09
2022-12-31T07:10:32.013Z,86.14
2022-12-31T07:13:32.440Z,86.45
2022-12-31T07:16:18.030Z,86.40
2022-12-31T07:18:54.827Z,86.33
2022-12-31T07:21:34.741Z,86.20
2022-12-31T07:24:09.511Z,86.21
2022-12-31T07:27:02.001Z,86.16
2022-12-31T07:29:45.801Z,86.30
2022-12-31T07:32:26.706Z,86.25
2022-12-31T07:35:05.345Z,86.18
2022-12-31T07:37:43.965Z,86.14
2022-12-31T07:40:19.816Z,86.26
2022-12-31T07:43:02.936Z,86.08
2022-12-31T07:45:39.298Z,85.94
2022-12-31T07:48:22.397Z,85.92
2022-12-31T07:50:56.319Z,85.90
2022-12-31T07:53:29.814Z,86.07
2022-12-31T07:56:03.830Z,85.88
2022-12-31T07:58:54.428Z,85.76
2022-12-31T08:01:36.357Z,85.89
2022-12-31T08:04:11.339Z,85.67
2022-12-31T08:06:50.055Z,85.53
2022-12-31T08:09:32.719Z,85.50
2022-12-31T08:12:05.239Z,85.48
2022-12-31T08:14:41.513Z,85.36
2022-12-31T08:17:15.865Z,85.37
2022-12-31T08:19:48.735Z,85.32
2022-12-31T08:22:38.903Z,85.31
2022-12-31T08:25:21.054Z,85.14
2022-12-31T08:28:04.349Z,85.13
2022-12-31T08:30:45.835Z,84.81
2022-12-31T08:33:23.410Z,84.94
2022-12-31T08:36:04.725Z,84.79
2022-12-31T08:38:41.975Z,84.98
2022-12-31T08:41:19.583Z,84.89
2022-12-31T08:43:57.303Z,84.87
2022-12-31T08:46:32.974Z,84.63
2022-12-31T08:49:05.712Z,84.72
2022-12-31T08:51:38.522Z,84.53
2022-12-31T08:54:13.462Z,84.35
2022-12-31T08:56:50.792Z,84.27
2022-12-31T08:59:34.876Z,84.41
2022-12-31T09:02:27.270Z,84.36
2022-12-31T09:05:05.346Z,84.29
2022-12-31T09:07:39.580Z,83.99
2022-12-31T09:10:18.739Z,84.14
2022-12-31T09:12:55.808Z,84.24
2022-12-31T09:15:34.551Z,84.05
2022-12-31T09:18:08.600Z,84.02
2022-12-31T09:20:43.864Z,84.08
2022-12-31T09:23:17.438Z,83.91
2022-12-31T09:26:00.531Z,83.69
2022-12-31T09:28:41.205Z,83.80
2022-12-31T09:31:17.009Z,83.35
2022-12-31T09:33:54.435Z,83.33
2022-12-31T09:36:31.414Z,83.27
2022-12-31T09:39:07.926Z,82.98
2022-12-31T09:42:19.180Z,82.61
2022-12-31T09:45:15.252Z,82.63
2022-12-31T09:48:24.145Z,82.38
2022-12-31T09:51:06.605Z,82.52
2022-12-31T09:54:00.331Z,82.39
2022-12-31T09:56:34.056Z,82.22
2022-12-31T09:59:11.916Z,82.16
2022-12-31T10:02:13.775Z,81.51
2022-12-31T10:05:03.952Z,81.28
2022-12-31T10:07:53.440Z,81.35
2022-12-31T10:10:27.530Z,81.00
2022-12-31T10:13:22.275Z,81.27
2022-12-31T10:16:13.848Z,81.09
2022-12-31T10:18:56.001Z,81.27
2022-12-31T10:21:50.339Z,81.03
2022-12-31T10:24:45.056Z,80.62
2022-12-31T10:27:23.784Z,80.75
2022-12-31T10:30:04.136Z,81.02
2022-12-31T10:32:43.381Z,81.03
2022-12-31T10:35:32.906Z,81.00
2022-12-31T10:38:16.429Z,80.62
2022-12-31T10:41:35.069Z,80.71
2022-12-31T10:44:32.040Z,80.04
2022-12-31T10:47:23.157Z,79.28
2022-12-31T10:50:37.836Z,79.29
2022-12-31T10:54:06.980Z,79.22
2022-12-31T10:56:55.069Z,79.01
2022-12-31T10:59:54.346Z,79.04
2022-12-31T11:02:58.523Z,79.30
2022-12-31T11:06:21.904Z,79.04
2022-12-31T11:09:34.544Z,78.59
2022-12-31T11:12:15.714Z,79.06
2022-12-31T11:15:01.528Z,78.76
2022-12-31T11:17:45.046Z,78.98
2022-12-31T11:20:33.362Z,79.04
2022-12-31T11:23:12.342Z,78.74
2022-12-31T11:25:59.571Z,78.47
2022-12-31T11:29:09.135Z,78.34
2022-12-31T11:31:58.142Z,78.67
2022-12-31T11:34:49.143Z,78.36
2022-12-31T11:37:32.904Z,78.02
2022-12-31T11:40:22.941Z,78.34
2022-12-31T11:42:58.756Z,77.90
2022-12-31T11:45:50.726Z,77.78
2022-12-31T11:48:31.016Z,77.76
2022-12-31T11:51:16.044Z,77.85
2022-12-31T11:54:01.287Z,77.63
2022-12-31T11:56:36.799Z,78.03
2022-12-31T11:59:19.020Z,78.22
2022-12-31T12:01:56.506Z,77.78
2022-12-31T12:04:28.486Z,77.78
2022-12-31T12:07:01.706Z,77.93
2022-12-31T12:09:34.976Z,77.62
2022-12-31T12:12:08.233Z,78.06
2022-12-31T12:14:42.816Z,77.95
2022-12-31T12:17:19.054Z,77.94
2022-12-31T12:19:56.839Z,77.79
2022-12-31T12:22:30.614Z,77.86
2022-12-31T12:25:06.831Z,78.04
2022-12-31T12:27:38.912Z,78.30
2022-12-31T12:30:21.840Z,78.23
2022-12-31T12:32:59.424Z,78.41
2022-12-31T12:35:32.684Z,78.18
2022-12-31T12:38:07.032Z,78.02
2022-12-31T12:40:39.795Z,78.32
2022-12-31T12:43:24.897Z,78.69
2022-12-31T12:46:00.241Z,79.11
2022-12-31T12:48:39.989Z,79.51
2022-12-31T12:51:23.696Z,80.23
2022-12-31T12:54:01.363Z,80.28
2022-12-31T12:56:40.349Z,80.36
2022-12-31T12:59:50.807Z,80.62
2022-12-31T13:02:40.295Z,80.96
2022-12-31T13:05:28.280Z,80.95
2022-12-31T13:08:08.018Z,81.42
2022-12-31T13:10:55.790Z,81.40
2022-12-31T13:13:33.959Z,81.78
2022-12-31T13:16:12.797Z,82.00
2022-12-31T13:18:54.325Z,82.25
2022-12-31T13:21:38.629Z,82.56
2022-12-31T13:24:19.998Z,82.56
2022-12-31T13:26:56.103Z,82.66
2022-12-31T13:29:31.541Z,82.91
2022-12-31T13:32:06.013Z,82.75
2022-12-31T13:34:41.565Z,82.79
2022-12-31T13:37:24.089Z,82.94
2022-12-31T13:40:01.062Z,83.02
2022-12-31T13:42:41.246Z,82.81
2022-12-31T13:45:18.351Z,83.02
2022-12-31T13:47:53.349Z,82.93
2022-12-31T13:50:29.776Z,82.88
2022-12-31T13:53:06.422Z,82.71
2022-12-31T13:55:41.539Z,82.74
2022-12-31T13:58:19.128Z,82.77
2022-12-31T14:00:54.650Z,82.47
2022-12-31T14:03:35.910Z,82.49
2022-12-31T14:06:12.517Z,82.24
2022-12-31T14:08:45.049Z,82.21
2022-12-31T14:11:24.980Z,82.22
2022-12-31T14:14:08.804Z,82.12
2022-12-31T14:16:45.994Z,82.09
2022-12-31T14:19:30.677Z,81.80
2022-12-31T14:22:10.242Z,81.75
2022-12-31T14:24:46.955Z,81.71
2022-12-31T14:27:23.821Z,81.72
2022-12-31T14:29:58.250Z,81.50
2022-12-31T14:33:00.636Z,81.54
2022-12-31T14:35:41.713Z,81.38
2022-12-31T14:38:22.650Z,81.50
2022-12-31T14:41:05.910Z,80.82
2022-12-31T14:43:54.268Z,80.93
2022-12-31T14:46:31.074Z,80.93
2022-12-31T14:49:13.670Z,80.90
2022-12-31T14:51:45.519Z,80.79
2022-12-31T14:54:30.258Z,80.77
2022-12-31T14:57:12.634Z,80.56
2022-12-31T14:59:54.095Z,80.57
2022-12-31T15:02:34.154Z,80.44
2022-12-31T15:05:18.520Z,80.36
2022-12-31T15:07:59.178Z,80.11
2022-12-31T15:10:43.177Z,80.14
2022-12-31T15:13:26.526Z,80.04
2022-12-31T15:16:24.789Z,80.13
2022-12-31T15:19:13.908Z,79.85
2022-12-31T15:21:56.999Z,79.71
2022-12-31T15:24:30.766Z,79.86
2022-12-31T15:27:05.578Z,79.87
2022-12-31T15:29:44.134Z,79.65
2022-12-31T15:32:24.022Z,79.58
2022-12-31T15:35:05.193Z,79.30
2022-12-31T15:37:39.190Z,79.46
2022-12-31T15:40:25.067Z,79.43
2022-12-31T15:42:58.551Z,78.99
2022-12-31T15:45:37.926Z,79.35
2022-12-31T15:48:15.138Z,79.01
2022-12-31T15:50:47.625Z,78.39
2022-12-31T15:53:30.124Z,78.46
2022-12-31T15:56:03.696Z,78.58
2022-12-31T15:58:36.745Z,78.67
2022-12-31T16:01:14.007Z,78.36
2022-12-31T16:03:48.200Z,78.14
2022-12-31T16:06:20.830Z,78.07
2022-12-31T16:08:53.572Z,78.04
2022-12-31T16:11:27.323Z,77.86
2022-12-31T16:14:01.154Z,77.58
2022-12-31T16:16:34.401Z,77.66
2022-12-31T16:19:15.988Z,77.03
2022-12-31T16:21:49.631Z,77.38
2022-12-31T16:24:30.591Z,76.73
2022-12-31T16:27:05.779Z,76.73
2022-12-31T16:29:39.176Z,76.64
2022-12-31T16:32:13.700Z,76.71
2022-12-31T16:34:46.192Z,76.29
2022-12-31T16:37:19.699Z,76.55
2022-12-31T16:40:18.520Z,76.36
2022-12-31T16:42:53.238Z,76.62
2022-12-31T16:45:36.394Z,76.36
2022-12-31T16:48:18.260Z,76.36
2022-12-31T16:50:53.564Z,76.17
2022-12-31T16:53:27.993Z,76.04
2022-12-31T16:56:03.664Z,75.86
2022-12-31T16:58:40.890Z,76.05
2022-12-31T17:01:17.948Z,75.82
2022-12-31T17:03:53.954Z,75.39
2022-12-31T17:06:28.256Z,75.05
2022-12-31T17:09:15.085Z,75.41
2022-12-31T17:11:52.638Z,75.78
2022-12-31T17:14:30.504Z,75.68
2022-12-31T17:17:05.134Z,75.74
2022-12-31T17:19:42.778Z,75.76
2022-12-31T17:22:24.129Z,75.65
2022-12-31T17:25:05.542Z,75.64
2022-12-31T17:27:38.744Z,75.87
2022-12-31T17:30:37.639Z,75.92
2022-12-31T17:33:29.946Z,75.65
2022-12-31T17:36:20.609Z,75.47
2022-12-31T17:38:52.856Z,75.82
2022-12-31T17:41:29.034Z,75.84
2022-12-31T17:44:00.864Z,75.90
2022-12-31T17:46:32.885Z,75.56
2022-12-31T17:49:05.250Z,75.63
2022-12-31T17:51:37.937Z,75.38
2022-12-31T17:54:16.410Z,75.57
2022-12-31T17:56:48.959Z,75.38
2022-12-31T17:59:23.948Z,75.43
2022-12-31T18:01:55.882Z,75.46
2022-12-31T18:04:28.839Z,75.37
2022-12-31T18:07:00.696Z,75.47
2022-12-31T18:09:35.431Z,75.61
2022-12-31T18:12:08.795Z,75.66
2022-12-31T18:14:48.287Z,75.40
2022-12-31T18:17:20.175Z,75.57
2022-12-31T18:20:04.876Z,75.71
2022-12-31T18:22:37.499Z,75.57
2022-12-31T18:25:11.226Z,75.98
2022-12-31T18:27:43.176Z,75.97
2022-12-31T18:30:17.806Z,75.99
2022-12-31T18:32:49.896Z,75.94
2022-12-31T18:38:16.902Z,76.05
2022-12-31T18:40:55.201Z,76.14
2022-12-31T18:43:27.193Z,76.21
2022-12-31T18:45:59.174Z,76.38
2022-12-31T18:48:31.277Z,76.31
2022-12-31T18:51:03.250Z,76.40
2022-12-31T18:53:35.027Z,76.50
2022-12-31T18:56:07.748Z,76.43
2022-12-31T18:58:39.612Z,76.46
2022-12-31T19:01:25.763Z,76.53
2022-12-31T19:03:58.878Z,76.59
2022-12-31T19:06:31.259Z,76.47
2022-12-31T19:09:06.383Z,76.51
2022-12-31T19:11:50.193Z,76.34
2022-12-31T19:14:24.639Z,76.58
2022-12-31T19:19:30.715Z,76.55
2022-12-31T19:22:02.775Z,76.39
2022-12-31T19:24:34.985Z,76.35
2022-12-31T19:27:06.955Z,76.58
2022-12-31T19:29:38.850Z,76.46
2022-12-31T19:32:10.749Z,76.29
2022-12-31T19:34:42.704Z,76.46
2022-12-31T19:37:17.427Z,76.38
2022-12-31T19:39:51.708Z,76.17
2022-12-31T19:42:23.708Z,76.32
2022-12-31T19:44:55.661Z,76.36
2022-12-31T19:47:27.761Z,76.21
2022-12-31T19:49:59.925Z,76.27
2022-12-31T19:52:31.830Z,76.18
2022-12-31T19:55:03.628Z,76.10
2022-12-31T19:57:35.778Z,76.10
2022-12-31T20:00:10.753Z,76.25
2022-12-31T20:02:43.146Z,76.23
2022-12-31T20:05:16.801Z,76.15
2022-12-31T20:07:48.773Z,75.88
2022-12-31T20:10:20.975Z,76.00
2022-12-31T20:12:53.203Z,75.89
2022-12-31T20:15:25.304Z,75.99
2022-12-31T20:17:58.672Z,76.19
2022-12-31T20:20:30.526Z,76.04
2022-12-31T20:23:02.829Z,75.74
2022-12-31T20:25:34.782Z,76.09
2022-12-31T20:28:06.928Z,76.03
2022-12-31T20:30:39.868Z,75.90
2022-12-31T20:33:17.311Z,76.07
2022-12-31T20:35:52.374Z,75.81
2022-12-31T20:38:24.140Z,76.12
2022-12-31T20:40:56.298Z,75.94
2022-12-31T20:43:28.115Z,76.14
2022-12-31T20:45:59.918Z,76.01
2022-12-31T20:48:33.947Z,75.87
2022-12-31T20:51:04.300Z,75.94
2022-12-31T20:53:36.148Z,76.00
2022-12-31T20:56:09.541Z,76.06
2022-12-31T20:58:41.357Z,76.18
2022-12-31T21:01:13.976Z,76.40
2022-12-31T21:04:05.536Z,76.37
2022-12-31T21:06:38.613Z,76.24
2022-12-31T21:09:10.775Z,76.41
2022-12-31T21:12:00.531Z,76.48
2022-12-31T21:14:32.427Z,76.46
2022-12-31T21:17:04.426Z,76.54
2022-12-31T21:19:36.251Z,76.42
2022-12-31T21:22:08.300Z,76.57
2022-12-31T21:24:40.218Z,76.66
2022-12-31T21:27:12.166Z,76.45
2022-12-31T21:30:16.482Z,76.59
2022-12-31T21:32:36.046Z,76.66
2022-12-31T21:35:41.241Z,76.82
2022-12-31T21:38:04.010Z,76.92
2022-12-31T21:40:36.062Z,76.89
2022-12-31T21:43:08.311Z,76.95
2022-12-31T21:45:40.323Z,76.97
2022-12-31T21:48:22.142Z,76.95
2022-12-31T21:50:55.443Z,76.94
2022-12-31T21:53:34.119Z,76.92
2022-12-31T21:56:09.930Z,76.96
2022-12-31T21:58:44.312Z,76.81
2022-12-31T22:01:38.189Z,76.80
2022-12-31T22:04:35.164Z,76.42
2022-12-31T22:07:01.973Z,76.39
2022-12-31T22:09:34.316Z,76.27
2022-12-31T22:12:06.909Z,76.33
2022-12-31T22:14:38.808Z,76.39
2022-12-31T22:17:10.670Z,76.07
2022-12-31T22:20:08.643Z,75.92
2022-12-31T22:22:34.470Z,75.73
2022-12-31T22:25:07.091Z,75.72
2022-12-31T22:27:38.920Z,75.84
2022-12-31T22:30:12.448Z,75.80
2022-12-31T22:32:44.266Z,75.82
2022-12-31T22:35:16.820Z,75.63
2022-12-31T22:37:59.043Z,75.70
2022-12-31T22:40:33.730Z,75.70
2022-12-31T22:43:05.485Z,75.59
2022-12-31T22:45:38.901Z,75.61
2022-12-31T22:48:10.849Z,75.46
2022-12-31T22:50:42.853Z,75.53
2022-12-31T22:53:14.640Z,75.49
2022-12-31T22:55:46.694Z,75.48
2022-12-31T22:58:20.796Z,75.48
2022-12-31T23:00:52.973Z,75.50
2022-12-31T23:03:26.130Z,75.60
2022-12-31T23:05:58.160Z,75.45
2022-12-31T23:08:29.995Z,75.42
2022-12-31T23:11:05.735Z,75.54
2022-12-31T23:13:58.802Z,75.48
2022-12-31T23:16:49.280Z,75.57
2022-12-31T23:19:38.485Z,75.77
2022-12-31T23:22:27.877Z,75.61
2022-12-31T23:24:59.654Z,75.65
2022-12-31T23:27:31.501Z,75.68
2022-12-31T23:30:03.321Z,75.60
2022-12-31T23:32:35.296Z,75.64
2022-12-31T23:35:09.994Z,75.55
2022-12-31T23:37:42.237Z,75.70
2022-12-31T23:40:20.973Z,75.72
2022-12-31T23:42:54.107Z,75.63
2022-12-31T23:45:32.658Z,75.82
2022-12-31T23:48:06.170Z,75.90
2022-12-31T23:50:37.976Z,76.01
2022-12-31T23:53:09.976Z,76.08
2022-12-31T23:55:41.765Z,76.11
2022-12-31T23:58:13.695Z,76.09
